createdAt,value
2022-12-03T00:02:14.498Z,28.73
2022-12-03T00:04:41.387Z,29.13
2022-12-03T00:07:08.227Z,27.55
2022-12-03T00:09:34.987Z,27.67
2022-12-03T00:12:01.820Z,27.15
2022-12-03T00:14:28.642Z,28.77
2022-12-03T00:16:55.423Z,28.25
2022-12-03T00:19:22.209Z,28.23
2022-12-03T00:21:48.972Z,26.60
2022-12-03T00:24:15.693Z,29.85
2022-12-03T00:26:42.548Z,30.57
2022-12-03T00:29:09.386Z,28.30
2022-12-03T00:31:36.232Z,29.58
2022-12-03T00:34:02.997Z,30.10
2022-12-03T00:36:29.729Z,26.00
2022-12-03T00:38:56.649Z,26.50
2022-12-03T00:41:23.388Z,31.88
2022-12-03T00:43:50.237Z,27.40
2022-12-03T00:46:21.295Z,30.08
2022-12-03T00:48:48.586Z,29.33
2022-12-03T00:51:15.333Z,31.93
2022-12-03T00:53:42.115Z,26.40
2022-12-03T00:56:09.006Z,30.77
2022-12-03T00:58:35.917Z,28.83
2022-12-03T01:01:02.859Z,28.95
2022-12-03T01:03:29.728Z,30.10
2022-12-03T01:05:56.483Z,29.33
2022-12-03T01:08:23.353Z,31.92
2022-12-03T01:10:50.310Z,31.08
2022-12-03T01:13:17.141Z,29.80
2022-12-03T01:15:44.052Z,30.27
2022-12-03T01:18:10.824Z,29.65
2022-12-03T01:20:38.623Z,28.70
2022-12-03T01:23:05.483Z,29.65
2022-12-03T01:25:32.355Z,29.60
2022-12-03T01:27:59.167Z,31.27
2022-12-03T01:30:26.094Z,33.97
2022-12-03T01:32:52.874Z,31.33
2022-12-03T01:35:19.738Z,30.15
2022-12-03T01:37:46.499Z,33.42
2022-12-03T01:40:22.760Z,31.00
2022-12-03T01:42:49.512Z,33.58
2022-12-03T01:45:23.652Z,33.28
2022-12-03T01:47:50.968Z,31.98
2022-12-03T01:50:30.231Z,31.27
2022-12-03T01:53:00.499Z,29.70
2022-12-03T01:55:27.519Z,32.83
2022-12-03T01:57:57.185Z,33.38
2022-12-03T02:00:27.022Z,31.50
2022-12-03T02:02:56.571Z,30.92
2022-12-03T02:05:33.584Z,32.87
2022-12-03T02:08:01.094Z,31.40
2022-12-03T02:10:32.414Z,32.50
2022-12-03T02:13:06.492Z,30.83
2022-12-03T02:15:33.788Z,32.47
2022-12-03T02:18:00.993Z,32.40
2022-12-03T02:20:27.857Z,33.53
2022-12-03T02:23:06.728Z,33.58
2022-12-03T02:25:35.742Z,31.77
2022-12-03T02:28:04.488Z,33.13
2022-12-03T02:30:31.998Z,31.70
2022-12-03T02:32:59.583Z,34.30
2022-12-03T02:35:30.289Z,29.83
2022-12-03T02:38:01.427Z,32.83
2022-12-03T02:40:32.621Z,32.83
2022-12-03T02:43:02.355Z,31.63
2022-12-03T02:45:33.971Z,32.65
2022-12-03T02:48:11.493Z,33.45
2022-12-03T02:50:46.030Z,36.88
2022-12-03T02:53:17.658Z,27.60
2022-12-03T02:55:45.243Z,32.40
2022-12-03T02:58:12.481Z,33.55
2022-12-03T03:00:40.136Z,35.00
2022-12-03T03:03:08.240Z,31.05
2022-12-03T03:05:38.440Z,29.67
2022-12-03T03:08:06.492Z,33.73
2022-12-03T03:10:35.333Z,32.83
2022-12-03T03:13:04.086Z,32.58
2022-12-03T03:15:30.911Z,29.95
2022-12-03T03:17:57.689Z,34.28
2022-12-03T03:20:24.441Z,32.17
2022-12-03T03:22:51.224Z,30.73
2022-12-03T03:25:21.179Z,33.10
2022-12-03T03:27:48.159Z,32.50
2022-12-03T03:30:16.473Z,32.88
2022-12-03T03:32:43.320Z,32.60
2022-12-03T03:35:11.804Z,33.50
2022-12-03T03:37:39.055Z,33.25
2022-12-03T03:40:06.755Z,32.10
2022-12-03T03:42:33.878Z,30.90
2022-12-03T03:45:00.794Z,33.47
2022-12-03T03:47:27.651Z,31.20
2022-12-03T03:49:54.554Z,34.70
2022-12-03T03:52:22.507Z,33.28
2022-12-03T03:54:49.464Z,34.47
2022-12-03T03:57:16.396Z,30.47
2022-12-03T03:59:43.293Z,33.42
2022-12-03T04:02:21.751Z,33.13
2022-12-03T04:04:49.177Z,30.35
2022-12-03T04:07:16.799Z,30.80
2022-12-03T04:09:43.995Z,31.40
2022-12-03T04:12:32.133Z,34.10
2022-12-03T04:14:59.482Z,29.38
2022-12-03T04:17:26.629Z,36.00
2022-12-03T04:19:53.359Z,34.97
2022-12-03T04:22:38.887Z,31.23
2022-12-03T04:25:26.341Z,28.73
2022-12-03T04:28:12.461Z,33.53
2022-12-03T04:30:39.416Z,32.30
2022-12-03T04:33:24.594Z,31.52
2022-12-03T04:35:51.449Z,35.23
2022-12-03T04:38:18.256Z,36.25
2022-12-03T04:41:04.345Z,34.40
2022-12-03T04:43:33.217Z,31.90
2022-12-03T04:46:00.967Z,32.58
2022-12-03T04:48:29.691Z,33.23
2022-12-03T04:50:56.532Z,31.38
2022-12-03T04:53:23.332Z,34.22
2022-12-03T04:55:50.068Z,32.63
2022-12-03T04:58:16.789Z,34.83
2022-12-03T05:00:43.527Z,34.73
2022-12-03T05:03:10.275Z,31.70
2022-12-03T05:05:46.502Z,35.88
2022-12-03T05:08:13.254Z,33.55
2022-12-03T05:10:40.086Z,31.45
2022-12-03T05:13:07.006Z,33.50
2022-12-03T05:15:33.768Z,34.97
2022-12-03T05:18:00.875Z,33.80
2022-12-03T05:20:45.689Z,35.45
2022-12-03T05:23:16.502Z,34.72
2022-12-03T05:25:43.404Z,34.73
2022-12-03T05:28:10.220Z,34.15
2022-12-03T05:30:37.215Z,36.63
2022-12-03T05:33:04.304Z,33.97
2022-12-03T05:35:31.114Z,34.42
2022-12-03T05:37:57.885Z,31.60
2022-12-03T05:40:24.798Z,35.78
2022-12-03T05:42:54.600Z,33.10
2022-12-03T05:45:22.084Z,36.40
2022-12-03T05:47:48.939Z,36.15
2022-12-03T05:50:15.916Z,34.93
2022-12-03T05:52:42.940Z,35.10
2022-12-03T05:55:11.487Z,33.15
2022-12-03T05:57:38.695Z,38.50
2022-12-03T06:00:27.768Z,36.83
2022-12-03T06:02:55.320Z,37.30
2022-12-03T06:05:23.757Z,34.05
2022-12-03T06:07:52.095Z,35.53
2022-12-03T06:10:23.779Z,36.88
2022-12-03T06:12:51.300Z,38.35
2022-12-03T06:15:18.919Z,35.83
2022-12-03T06:17:46.044Z,35.45
2022-12-03T06:20:15.666Z,35.75
2022-12-03T06:22:42.546Z,34.47
2022-12-03T06:25:10.289Z,34.85
2022-12-03T06:27:36.998Z,34.53
2022-12-03T06:30:05.602Z,37.20
2022-12-03T06:32:32.460Z,35.85
2022-12-03T06:34:59.275Z,35.05
2022-12-03T06:37:26.084Z,41.30
2022-12-03T06:39:52.837Z,36.33
2022-12-03T06:42:20.307Z,40.55
2022-12-03T06:44:47.014Z,43.42
2022-12-03T06:47:13.828Z,40.80
2022-12-03T06:49:40.699Z,41.67
2022-12-03T06:52:07.468Z,39.70
2022-12-03T06:54:34.264Z,39.03
2022-12-03T06:57:04.420Z,36.72
2022-12-03T06:59:34.108Z,35.00
2022-12-03T07:02:01.327Z,35.92
2022-12-03T07:04:28.284Z,35.43
2022-12-03T07:06:55.108Z,32.60
2022-12-03T07:09:22.083Z,32.83
2022-12-03T07:11:48.838Z,35.28
2022-12-03T07:14:15.662Z,34.40
2022-12-03T07:16:43.740Z,32.73
2022-12-03T07:19:11.296Z,32.08
2022-12-03T07:21:38.199Z,33.75
2022-12-03T07:24:05.627Z,29.60
2022-12-03T07:26:32.828Z,33.60
2022-12-03T07:29:00.055Z,34.50
2022-12-03T07:31:26.927Z,33.65
2022-12-03T07:33:55.021Z,33.75
2022-12-03T07:36:21.979Z,32.33
2022-12-03T07:38:49.258Z,36.05
2022-12-03T07:41:16.246Z,31.97
2022-12-03T07:43:44.737Z,34.45
2022-12-03T07:46:11.743Z,35.15
2022-12-03T07:48:38.629Z,33.75
2022-12-03T07:51:05.574Z,34.50
2022-12-03T07:53:32.407Z,36.17
2022-12-03T07:55:59.121Z,38.70
2022-12-03T07:58:25.910Z,35.05
2022-12-03T08:00:52.689Z,36.70
2022-12-03T08:03:19.572Z,36.22
2022-12-03T08:05:46.328Z,32.27
2022-12-03T08:08:13.189Z,31.55
2022-12-03T08:10:40.063Z,36.40
2022-12-03T08:13:17.531Z,37.25
2022-12-03T08:15:45.013Z,35.03
2022-12-03T08:18:20.980Z,37.47
2022-12-03T08:20:50.517Z,36.05
2022-12-03T08:23:23.150Z,35.40
2022-12-03T08:25:51.772Z,34.85
2022-12-03T08:28:20.044Z,35.20
2022-12-03T08:30:55.922Z,37.53
2022-12-03T08:33:35.252Z,37.75
2022-12-03T08:36:12.497Z,36.65
2022-12-03T08:38:40.972Z,35.50
2022-12-03T08:41:15.793Z,39.25
2022-12-03T08:43:43.823Z,39.13
2022-12-03T08:46:18.931Z,35.42
2022-12-03T08:48:49.077Z,40.75
2022-12-03T08:51:25.464Z,35.03
2022-12-03T08:54:02.498Z,36.10
2022-12-03T08:56:33.002Z,42.23
2022-12-03T08:59:21.275Z,40.25
2022-12-03T09:01:49.924Z,37.70
2022-12-03T09:04:36.599Z,41.92
2022-12-03T09:07:04.135Z,43.10
2022-12-03T09:09:31.419Z,41.83
2022-12-03T09:11:58.292Z,42.55
2022-12-03T09:14:25.228Z,38.40
2022-12-03T09:16:56.182Z,39.80
2022-12-03T09:19:27.833Z,37.70
2022-12-03T09:21:55.019Z,41.03
2022-12-03T09:24:21.810Z,40.88
2022-12-03T09:26:49.110Z,44.22
2022-12-03T09:29:15.893Z,38.45
2022-12-03T09:31:42.759Z,38.38
2022-12-03T09:34:11.275Z,35.47
2022-12-03T09:36:38.076Z,37.78
2022-12-03T09:39:05.311Z,36.90
2022-12-03T09:41:32.126Z,38.13
2022-12-03T09:44:08.637Z,39.72
2022-12-03T09:46:39.428Z,41.07
2022-12-03T09:49:12.348Z,47.25
2022-12-03T09:51:40.914Z,42.20
2022-12-03T09:54:07.848Z,42.17
2022-12-03T09:56:37.373Z,42.15
2022-12-03T09:59:12.631Z,41.13
2022-12-03T10:01:39.543Z,42.15
2022-12-03T10:04:06.904Z,43.45
2022-12-03T10:06:33.869Z,41.50
2022-12-03T10:09:00.832Z,41.03
2022-12-03T10:11:28.812Z,35.47
2022-12-03T10:13:57.872Z,42.92
2022-12-03T10:16:25.774Z,39.33
2022-12-03T10:18:55.000Z,42.17
2022-12-03T10:21:32.280Z,42.92
2022-12-03T10:24:17.933Z,42.10
2022-12-03T10:26:46.401Z,40.53
2022-12-03T10:29:14.323Z,44.75
2022-12-03T10:31:41.248Z,42.85
2022-12-03T10:34:09.702Z,40.47
2022-12-03T10:36:36.800Z,49.73
2022-12-03T10:39:16.754Z,45.22
2022-12-03T10:41:44.709Z,48.17
2022-12-03T10:44:23.568Z,42.03
2022-12-03T10:47:11.474Z,46.53
2022-12-03T10:49:39.201Z,45.83
2022-12-03T10:52:06.989Z,45.95
2022-12-03T10:54:35.448Z,47.90
2022-12-03T10:57:02.192Z,49.67
2022-12-03T10:59:32.810Z,48.08
2022-12-03T11:01:59.962Z,46.50
2022-12-03T11:04:35.552Z,47.55
2022-12-03T11:07:09.238Z,53.05
2022-12-03T11:09:36.017Z,51.35
2022-12-03T11:12:07.509Z,50.15
2022-12-03T11:14:54.997Z,50.33
2022-12-03T11:17:40.757Z,52.08
2022-12-03T11:20:30.536Z,48.15
2022-12-03T11:22:58.867Z,52.17
2022-12-03T11:25:28.633Z,50.13
2022-12-03T11:28:10.704Z,51.07
2022-12-03T11:30:53.626Z,51.72
2022-12-03T11:33:25.425Z,56.15
2022-12-03T11:36:04.454Z,53.03
2022-12-03T11:38:53.574Z,47.70
2022-12-03T11:41:30.187Z,47.27
2022-12-03T11:44:03.129Z,45.58
2022-12-03T11:46:36.157Z,50.67
2022-12-03T11:49:17.616Z,48.72
2022-12-03T11:51:44.644Z,48.85
2022-12-03T11:54:17.612Z,46.53
2022-12-03T11:56:46.563Z,45.50
2022-12-03T11:59:13.733Z,43.63
2022-12-03T12:01:42.176Z,48.83
2022-12-03T12:04:28.462Z,42.60
2022-12-03T12:06:55.305Z,48.00
2022-12-03T12:09:47.868Z,47.88
2022-12-03T12:12:36.616Z,48.72
2022-12-03T12:15:38.654Z,45.60
2022-12-03T12:18:37.968Z,49.00
2022-12-03T12:21:56.106Z,46.37
2022-12-03T12:24:32.823Z,43.05
2022-12-03T12:27:02.619Z,48.40
2022-12-03T12:29:29.443Z,40.42
2022-12-03T12:32:12.896Z,43.38
2022-12-03T12:34:40.500Z,38.90
2022-12-03T12:37:18.285Z,38.53
2022-12-03T12:39:45.460Z,35.83
2022-12-03T12:42:32.140Z,39.33
2022-12-03T12:45:14.361Z,34.22
2022-12-03T12:47:59.049Z,32.83
2022-12-03T12:50:27.077Z,31.27
2022-12-03T12:52:58.847Z,32.40
2022-12-03T12:55:25.961Z,36.13
2022-12-03T12:57:53.057Z,29.27
2022-12-03T13:00:23.066Z,31.23
2022-12-03T13:03:01.276Z,32.35
2022-12-03T13:05:38.767Z,31.33
2022-12-03T13:08:27.272Z,30.20
2022-12-03T13:10:56.272Z,26.23
2022-12-03T13:13:30.851Z,26.03
2022-12-03T13:16:01.292Z,31.88
2022-12-03T13:18:49.506Z,28.50
2022-12-03T13:21:40.338Z,27.40
2022-12-03T13:24:39.542Z,27.30
2022-12-03T13:27:21.713Z,28.83
2022-12-03T13:29:57.276Z,32.75
2022-12-03T13:32:33.112Z,27.88
2022-12-03T13:35:24.802Z,32.42
2022-12-03T13:37:51.660Z,30.33
2022-12-03T13:40:28.832Z,29.23
2022-12-03T13:42:55.759Z,30.65
2022-12-03T13:45:35.383Z,31.42
2022-12-03T13:48:23.264Z,32.47
2022-12-03T13:50:52.415Z,34.22
2022-12-03T13:53:36.954Z,28.63
2022-12-03T13:56:32.748Z,28.42
2022-12-03T13:59:00.947Z,30.42
2022-12-03T14:01:28.537Z,30.48
2022-12-03T14:03:55.870Z,28.75
2022-12-03T14:06:22.798Z,31.73
2022-12-03T14:08:49.824Z,27.17
2022-12-03T14:11:35.357Z,29.45
2022-12-03T14:14:02.228Z,31.20
2022-12-03T14:16:29.738Z,29.60
2022-12-03T14:18:56.708Z,29.10
2022-12-03T14:21:23.586Z,33.97
2022-12-03T14:23:50.415Z,36.42
2022-12-03T14:26:17.378Z,33.10
2022-12-03T14:28:44.441Z,34.47
2022-12-03T14:31:11.493Z,32.00
2022-12-03T14:33:38.516Z,34.38
2022-12-03T14:36:05.967Z,37.13
2022-12-03T14:38:32.741Z,33.75
2022-12-03T14:40:59.670Z,32.50
2022-12-03T14:43:26.780Z,34.47
2022-12-03T14:45:53.751Z,34.65
2022-12-03T14:48:20.982Z,35.50
2022-12-03T14:50:47.814Z,43.88
2022-12-03T14:53:14.676Z,48.67
2022-12-03T14:55:41.559Z,45.73
2022-12-03T14:58:10.150Z,49.63
2022-12-03T15:00:39.563Z,48.25
2022-12-03T15:03:09.481Z,49.35
2022-12-03T15:05:37.024Z,50.42
2022-12-03T15:08:04.057Z,54.47
2022-12-03T15:10:30.889Z,49.55
2022-12-03T15:12:57.713Z,47.85
2022-12-03T15:15:24.534Z,52.42
2022-12-03T15:17:51.440Z,51.67
2022-12-03T15:20:18.509Z,42.00
2022-12-03T15:22:45.341Z,64.88
2022-12-03T15:25:12.866Z,105.18
2022-12-03T15:27:41.463Z,116.13
2022-12-03T15:30:08.777Z,73.35
2022-12-03T15:32:35.607Z,49.53
2022-12-03T15:35:02.537Z,41.90
2022-12-03T15:37:29.439Z,40.53
2022-12-03T15:39:56.595Z,42.15
2022-12-03T15:42:23.783Z,38.60
2022-12-03T15:44:50.592Z,37.93
2022-12-03T15:47:17.732Z,37.05
2022-12-03T15:49:44.543Z,37.70
2022-12-03T15:52:11.334Z,39.33
2022-12-03T15:54:38.262Z,40.72
2022-12-03T15:57:05.185Z,37.97
2022-12-03T15:59:32.039Z,34.40
2022-12-03T16:01:58.823Z,39.20
2022-12-03T16:04:25.896Z,36.92
2022-12-03T16:06:52.739Z,36.35
2022-12-03T16:09:25.320Z,37.90
2022-12-03T16:11:54.009Z,37.95
2022-12-03T16:14:20.725Z,34.97
2022-12-03T16:16:47.423Z,34.28
2022-12-03T16:19:14.437Z,32.42
2022-12-03T16:21:41.168Z,32.60
2022-12-03T16:24:08.017Z,30.13
2022-12-03T16:26:34.900Z,34.50
2022-12-03T16:29:01.820Z,32.60
2022-12-03T16:31:28.884Z,31.80
2022-12-03T16:33:55.788Z,36.30
2022-12-03T16:36:22.603Z,33.33
2022-12-03T16:39:17.791Z,35.05
2022-12-03T16:41:44.752Z,38.50
2022-12-03T16:44:20.294Z,40.42
2022-12-03T16:46:47.518Z,44.50
2022-12-03T16:49:14.364Z,43.20
2022-12-03T16:51:41.183Z,45.78
2022-12-03T16:54:07.990Z,50.15
2022-12-03T16:56:34.941Z,46.67
2022-12-03T16:59:01.765Z,55.20
2022-12-03T17:01:28.591Z,50.35
2022-12-03T17:03:55.419Z,51.33
2022-12-03T17:06:22.212Z,46.30
2022-12-03T17:08:49.916Z,49.85
2022-12-03T17:11:17.628Z,53.75
2022-12-03T17:13:45.196Z,53.85
2022-12-03T17:16:12.078Z,54.70
2022-12-03T17:18:38.943Z,50.80
2022-12-03T17:21:06.868Z,52.75
2022-12-03T17:23:33.684Z,46.40
2022-12-03T17:26:00.566Z,46.28
2022-12-03T17:28:27.336Z,49.38
2022-12-03T17:30:54.337Z,54.78
2022-12-03T17:33:21.162Z,51.70
2022-12-03T17:35:47.992Z,49.03
2022-12-03T17:38:14.840Z,48.50
2022-12-03T17:40:41.691Z,49.95
2022-12-03T17:43:08.608Z,46.47
2022-12-03T17:45:36.809Z,47.80
2022-12-03T17:48:03.941Z,52.45
2022-12-03T17:50:30.750Z,54.30
2022-12-03T17:52:57.937Z,50.85
2022-12-03T17:55:33.874Z,53.50
2022-12-03T17:58:06.296Z,48.95
2022-12-03T18:00:33.720Z,45.85
2022-12-03T18:03:00.797Z,48.15
2022-12-03T18:05:27.586Z,50.33
2022-12-03T18:07:54.653Z,42.30
2022-12-03T18:10:22.588Z,45.17
2022-12-03T18:12:49.441Z,49.15
2022-12-03T18:15:16.590Z,49.55
2022-12-03T18:17:43.330Z,49.25
2022-12-03T18:20:10.313Z,47.28
2022-12-03T18:22:37.142Z,49.92
2022-12-03T18:25:04.925Z,48.20
2022-12-03T18:27:31.797Z,49.50
2022-12-03T18:29:59.537Z,51.83
2022-12-03T18:32:29.225Z,52.20
2022-12-03T18:34:57.189Z,52.13
2022-12-03T18:37:27.236Z,55.92
2022-12-03T18:39:55.002Z,53.17
2022-12-03T18:42:23.747Z,48.05
2022-12-03T18:44:52.663Z,51.33
2022-12-03T18:47:24.979Z,53.25
2022-12-03T18:49:52.118Z,49.55
2022-12-03T18:52:21.633Z,52.97
2022-12-03T18:54:48.883Z,50.47
2022-12-03T18:57:15.955Z,55.15
2022-12-03T18:59:42.715Z,54.95
2022-12-03T19:02:32.493Z,48.72
2022-12-03T19:05:03.770Z,47.60
2022-12-03T19:07:30.551Z,49.88
2022-12-03T19:09:57.485Z,51.30
2022-12-03T19:12:24.349Z,50.58
2022-12-03T19:14:51.241Z,52.33
2022-12-03T19:17:18.168Z,46.15
2022-12-03T19:19:45.146Z,47.80
2022-12-03T19:22:11.947Z,46.90
2022-12-03T19:24:38.837Z,47.78
2022-12-03T19:27:05.562Z,44.35
2022-12-03T19:29:32.392Z,47.28
2022-12-03T19:31:59.215Z,45.92
2022-12-03T19:34:26.222Z,48.45
2022-12-03T19:36:53.337Z,49.50
2022-12-03T19:39:20.191Z,44.50
2022-12-03T19:41:46.960Z,41.15
2022-12-03T19:44:18.444Z,49.83
2022-12-03T19:46:45.732Z,49.38
2022-12-03T19:49:12.573Z,42.92
2022-12-03T19:51:39.680Z,47.08
2022-12-03T19:54:08.304Z,47.85
2022-12-03T19:56:35.616Z,44.05
2022-12-03T19:59:02.908Z,47.70
2022-12-03T20:01:32.442Z,42.95
2022-12-03T20:04:01.433Z,40.03
2022-12-03T20:06:31.109Z,46.83
2022-12-03T20:09:00.020Z,45.47
2022-12-03T20:11:30.189Z,44.63
2022-12-03T20:13:59.361Z,46.08
2022-12-03T20:16:27.547Z,42.83
2022-12-03T20:18:59.556Z,45.15
2022-12-03T20:21:29.466Z,45.15
2022-12-03T20:23:56.407Z,46.20
2022-12-03T20:26:23.779Z,44.33
2022-12-03T20:28:50.641Z,44.75
2022-12-03T20:31:19.942Z,42.05
2022-12-03T20:33:50.724Z,47.10
2022-12-03T20:36:20.671Z,43.92
2022-12-03T20:38:47.477Z,47.78
2022-12-03T20:41:18.382Z,43.38
2022-12-03T20:43:45.648Z,44.03
2022-12-03T20:46:18.319Z,45.63
2022-12-03T20:48:45.697Z,48.50
2022-12-03T20:51:15.730Z,47.30
2022-12-03T20:53:43.350Z,44.17
2022-12-03T20:56:10.622Z,45.15
2022-12-03T20:58:37.844Z,52.88
2022-12-03T21:01:17.112Z,47.67
2022-12-03T21:03:45.155Z,48.70
2022-12-03T21:06:12.848Z,47.83
2022-12-03T21:08:42.245Z,52.95
2022-12-03T21:11:11.860Z,47.53
2022-12-03T21:13:41.546Z,46.83
2022-12-03T21:16:10.787Z,46.60
2022-12-03T21:18:37.810Z,46.28
2022-12-03T21:21:10.281Z,47.40
2022-12-03T21:23:37.276Z,47.95
2022-12-03T21:26:10.170Z,46.25
2022-12-03T21:28:39.571Z,47.80
2022-12-03T21:31:08.969Z,51.58
2022-12-03T21:33:36.392Z,45.67
2022-12-03T21:36:04.952Z,44.53
2022-12-03T21:38:32.981Z,44.55
2022-12-03T21:41:00.724Z,42.42
2022-12-03T21:43:27.901Z,45.05
2022-12-03T21:45:54.719Z,45.53
2022-12-03T21:48:22.133Z,43.70
2022-12-03T21:51:04.721Z,47.22
2022-12-03T21:53:32.927Z,47.50
2022-12-03T21:56:00.070Z,45.72
2022-12-03T21:58:29.756Z,48.22
2022-12-03T22:00:56.641Z,47.00
2022-12-03T22:03:23.582Z,46.80
2022-12-03T22:05:50.659Z,45.33
2022-12-03T22:08:18.370Z,47.10
2022-12-03T22:10:45.209Z,45.17
2022-12-03T22:13:12.140Z,45.20
2022-12-03T22:15:40.133Z,42.42
2022-12-03T22:18:06.979Z,44.00
2022-12-03T22:20:33.807Z,47.53
2022-12-03T22:23:00.597Z,46.95
2022-12-03T22:25:27.436Z,48.40
2022-12-03T22:27:54.223Z,48.38
2022-12-03T22:30:21.107Z,41.42
2022-12-03T22:32:47.859Z,43.22
2022-12-03T22:35:14.769Z,46.65
2022-12-03T22:37:41.519Z,46.85
2022-12-03T22:40:08.564Z,47.75
2022-12-03T22:42:35.350Z,48.25
2022-12-03T22:45:02.172Z,47.72
2022-12-03T22:47:28.992Z,50.67
2022-12-03T22:49:56.094Z,46.33
2022-12-03T22:52:23.167Z,47.67
2022-12-03T22:54:50.016Z,47.95
2022-12-03T22:57:16.784Z,49.53
2022-12-03T22:59:43.722Z,45.33
2022-12-03T23:02:10.557Z,48.15
2022-12-03T23:04:37.315Z,44.17
2022-12-03T23:07:04.167Z,44.05
2022-12-03T23:09:31.082Z,49.05
2022-12-03T23:11:57.867Z,47.75
2022-12-03T23:14:24.666Z,48.08
2022-12-03T23:16:51.413Z,49.55
2022-12-03T23:19:19.895Z,47.95
2022-12-03T23:21:46.697Z,49.95
2022-12-03T23:24:13.551Z,50.00
2022-12-03T23:26:40.290Z,49.17
2022-12-03T23:29:08.460Z,47.03
2022-12-03T23:31:35.703Z,52.38
2022-12-03T23:34:02.901Z,46.55
2022-12-03T23:36:31.718Z,51.33
2022-12-03T23:38:58.494Z,51.08
2022-12-03T23:41:26.176Z,53.25
2022-12-03T23:43:53.335Z,50.63
2022-12-03T23:46:22.678Z,48.35
2022-12-03T23:48:50.982Z,48.10
2022-12-03T23:51:21.165Z,50.97
2022-12-03T23:53:48.405Z,49.33
2022-12-03T23:56:18.300Z,49.03
2022-12-03T23:58:45.727Z,56.65
